createdAt,value
2023-01-30T00:00:55.915Z,94179.00
2023-01-30T00:05:01.369Z,94164.00
2023-01-30T00:09:06.928Z,94189.00
2023-01-30T00:13:11.280Z,94184.00
2023-01-30T00:17:40.527Z,94180.00
2023-01-30T00:21:44.529Z,94133.00
2023-01-30T00:25:51.234Z,94166.00
2023-01-30T00:30:02.830Z,94124.00
2023-01-30T00:34:10.580Z,94140.00
2023-01-30T00:38:15.273Z,94132.00
2023-01-30T00:42:38.048Z,94123.00
2023-01-30T00:46:59.462Z,94096.00
2023-01-30T00:51:03.640Z,94144.00
2023-01-30T00:55:32.958Z,94124.00
2023-01-30T00:59:38.068Z,94126.00
2023-01-30T01:03:54.011Z,94132.00
2023-01-30T01:07:57.839Z,94099.00
2023-01-30T01:12:01.826Z,94071.00
2023-01-30T01:16:12.191Z,94097.00
2023-01-30T01:20:16.664Z,94062.00
2023-01-30T01:24:25.823Z,94057.00
2023-01-30T01:28:29.430Z,94071.00
2023-01-30T01:32:35.151Z,94061.00
2023-01-30T01:36:54.912Z,94066.00
2023-01-30T01:41:07.749Z,94062.00
2023-01-30T01:45:31.306Z,94044.00
2023-01-30T01:49:38.851Z,94046.00
2023-01-30T01:54:01.244Z,94050.00
2023-01-30T01:58:09.167Z,94034.00
2023-01-30T02:02:15.762Z,94023.00
2023-01-30T02:06:45.257Z,94019.00
2023-01-30T02:10:54.517Z,94004.00
2023-01-30T02:15:00.310Z,93994.00
2023-01-30T02:19:21.449Z,93987.00
2023-01-30T02:24:08.158Z,93997.00
2023-01-30T02:28:59.651Z,93994.00
2023-01-30T02:33:17.415Z,93990.00
2023-01-30T02:37:38.514Z,93982.00
2023-01-30T02:41:50.222Z,93962.00
2023-01-30T02:45:58.386Z,93959.00
2023-01-30T02:50:12.052Z,93972.00
2023-01-30T02:54:16.527Z,93956.00
2023-01-30T02:58:25.923Z,93957.00
2023-01-30T03:02:52.213Z,93956.00
2023-01-30T03:07:15.538Z,93939.00
2023-01-30T03:11:27.612Z,93923.00
2023-01-30T03:15:35.606Z,93921.00
2023-01-30T03:19:39.208Z,93912.00
2023-01-30T03:23:46.279Z,93908.00
2023-01-30T03:27:51.565Z,93923.00
2023-01-30T03:31:55.373Z,93902.00
2023-01-30T03:36:25.796Z,93920.00
2023-01-30T03:40:32.263Z,93894.00
2023-01-30T03:44:40.360Z,93896.00
2023-01-30T03:48:44.273Z,93916.00
2023-01-30T03:52:49.281Z,93903.00
2023-01-30T03:57:08.069Z,93901.00
2023-01-30T04:01:11.437Z,93909.00
2023-01-30T04:05:15.205Z,93904.00
2023-01-30T04:09:24.852Z,93898.00
2023-01-30T04:13:30.816Z,93890.00
2023-01-30T04:17:34.230Z,93897.00
2023-01-30T04:22:22.147Z,93891.00
2023-01-30T04:26:25.591Z,93890.00
2023-01-30T04:30:31.439Z,93880.00
2023-01-30T04:34:54.724Z,93871.00
2023-01-30T04:38:58.994Z,93879.00
2023-01-30T04:43:05.654Z,93855.00
2023-01-30T04:47:31.569Z,93857.00
2023-01-30T04:51:34.938Z,93845.00
2023-01-30T04:55:58.518Z,93836.00
2023-01-30T05:00:02.927Z,93829.00
2023-01-30T05:04:08.978Z,93833.00
2023-01-30T05:08:17.502Z,93841.00
2023-01-30T05:18:40.008Z,93834.00
2023-01-30T05:22:44.805Z,93847.00
2023-01-30T05:27:03.617Z,93838.00
2023-01-30T05:31:08.626Z,93816.00
2023-01-30T05:35:11.959Z,93846.00
2023-01-30T05:39:17.091Z,93870.00
2023-01-30T05:43:20.492Z,93852.00
2023-01-30T05:47:23.824Z,93844.00
2023-01-30T05:51:28.735Z,93819.00
2023-01-30T05:55:33.356Z,93827.00
2023-01-30T06:00:39.281Z,93815.00
2023-01-30T06:04:42.524Z,93813.00
2023-01-30T06:08:48.405Z,93790.00
2023-01-30T06:14:06.131Z,93782.00
2023-01-30T06:18:10.907Z,93770.00
2023-01-30T06:22:40.307Z,93771.00
2023-01-30T06:26:43.638Z,93762.00
2023-01-30T06:30:47.057Z,93762.00
2023-01-30T06:35:22.110Z,93750.00
2023-01-30T06:39:26.809Z,93758.00
2023-01-30T06:43:30.097Z,93753.00
2023-01-30T06:48:27.630Z,93765.00
2023-01-30T06:52:31.062Z,93803.00
2023-01-30T06:56:37.057Z,93812.00
2023-01-30T07:00:42.487Z,93818.00
2023-01-30T07:05:36.923Z,93817.00
2023-01-30T07:10:13.301Z,93776.00
2023-01-30T07:15:28.457Z,93761.00
2023-01-30T07:19:33.195Z,93751.00
2023-01-30T07:24:34.439Z,93756.00
2023-01-30T07:28:37.820Z,93731.00
2023-01-30T07:32:44.399Z,93729.00
2023-01-30T07:36:49.600Z,93695.00
2023-01-30T07:41:20.009Z,93690.00
2023-01-30T07:45:23.323Z,93696.00
2023-01-30T07:49:26.657Z,93691.00
2023-01-30T07:53:52.118Z,93666.00
2023-01-30T07:57:55.957Z,93678.00
2023-01-30T08:02:30.071Z,93701.00
2023-01-30T08:11:02.617Z,93690.00
2023-01-30T08:15:07.160Z,93670.00
2023-01-30T08:19:12.733Z,93684.00
2023-01-30T08:23:16.034Z,93696.00
2023-01-30T08:27:30.238Z,93708.00
2023-01-30T08:31:40.647Z,93680.00
2023-01-30T08:35:57.411Z,93716.00
2023-01-30T08:40:00.796Z,93725.00
2023-01-30T08:44:06.165Z,93725.00
2023-01-30T08:48:09.548Z,93722.00
2023-01-30T08:52:12.831Z,93697.00
2023-01-30T08:56:48.937Z,93679.00
2023-01-30T09:00:54.226Z,93657.00
2023-01-30T09:04:58.875Z,93655.00
2023-01-30T09:09:02.528Z,93636.00
2023-01-30T09:13:10.832Z,93650.00
2023-01-30T09:17:42.519Z,93646.00
2023-01-30T09:21:47.463Z,93657.00
2023-01-30T09:25:55.085Z,93708.00
2023-01-30T09:29:58.971Z,93703.00
2023-01-30T09:34:09.853Z,93702.00
2023-01-30T09:38:13.630Z,93669.00
2023-01-30T09:43:06.274Z,93693.00
2023-01-30T09:47:41.946Z,93695.00
2023-01-30T09:51:57.128Z,93680.00
2023-01-30T09:56:03.500Z,93660.00
2023-01-30T10:00:57.644Z,93641.00
2023-01-30T10:05:03.946Z,93605.00
2023-01-30T10:09:36.609Z,93622.00
2023-01-30T10:14:02.355Z,93605.00
2023-01-30T10:18:51.493Z,93619.00
2023-01-30T10:23:19.691Z,93588.00
2023-01-30T10:27:27.042Z,93594.00
2023-01-30T10:31:46.962Z,93579.00
2023-01-30T10:36:04.567Z,93594.00
2023-01-30T10:40:19.591Z,93603.00
2023-01-30T10:44:25.511Z,93561.00
2023-01-30T10:48:56.696Z,93514.00
2023-01-30T10:53:13.995Z,93517.00
2023-01-30T10:57:27.316Z,93501.00
2023-01-30T11:01:46.261Z,93501.00
2023-01-30T11:05:51.701Z,93472.00
2023-01-30T11:10:01.933Z,93488.00
2023-01-30T11:14:51.651Z,93481.00
2023-01-30T11:23:34.057Z,93451.00
2023-01-30T11:27:38.093Z,93447.00
2023-01-30T11:31:51.784Z,93460.00
2023-01-30T11:35:59.803Z,93474.00
2023-01-30T11:40:26.685Z,93511.00
2023-01-30T11:44:32.094Z,93521.00
2023-01-30T11:49:02.320Z,93535.00
2023-01-30T11:53:49.528Z,93481.00
2023-01-30T11:57:58.708Z,93499.00
2023-01-30T12:02:14.327Z,93495.00
2023-01-30T12:06:27.398Z,93474.00
2023-01-30T12:10:33.182Z,93484.00
2023-01-30T12:14:41.445Z,93480.00
2023-01-30T12:19:13.404Z,93494.00
2023-01-30T12:23:31.800Z,93493.00
2023-01-30T12:32:11.898Z,93506.00
2023-01-30T12:36:27.234Z,93450.00
2023-01-30T12:40:50.198Z,93474.00
2023-01-30T12:45:07.555Z,93477.00
2023-01-30T12:49:32.670Z,93481.00
2023-01-30T12:54:05.007Z,93452.00
2023-01-30T12:58:22.598Z,93458.00
2023-01-30T13:02:47.481Z,93478.00
2023-01-30T13:07:08.128Z,93494.00
2023-01-30T13:11:40.989Z,93459.00
2023-01-30T13:15:59.652Z,93464.00
2023-01-30T13:20:19.514Z,93430.00
2023-01-30T13:24:29.297Z,93433.00
2023-01-30T13:28:37.415Z,93418.00
2023-01-30T13:32:51.272Z,93365.00
2023-01-30T13:37:00.958Z,93419.00
2023-01-30T13:41:05.302Z,93438.00
2023-01-30T13:45:17.230Z,93411.00
2023-01-30T13:49:25.060Z,93420.00
2023-01-30T13:53:57.041Z,93407.00
2023-01-30T13:58:17.246Z,93377.00
2023-01-30T14:02:25.130Z,93375.00
2023-01-30T14:06:45.741Z,93385.00
2023-01-30T14:10:56.334Z,93365.00
2023-01-30T14:15:26.784Z,93421.00
2023-01-30T14:19:36.808Z,93437.00
2023-01-30T14:23:42.092Z,93444.00
2023-01-30T14:28:30.366Z,93458.00
2023-01-30T14:38:20.265Z,93488.00
2023-01-30T14:42:25.658Z,93478.00
2023-01-30T14:46:59.077Z,93470.00
2023-01-30T14:51:33.361Z,93497.00
2023-01-30T14:55:38.757Z,93487.00
2023-01-30T15:00:12.119Z,93492.00
2023-01-30T15:04:17.633Z,93494.00
2023-01-30T15:08:49.805Z,93497.00
2023-01-30T15:13:06.043Z,93504.00
2023-01-30T15:17:24.970Z,93514.00
2023-01-30T15:21:45.372Z,93498.00
2023-01-30T15:26:14.242Z,93494.00
2023-01-30T15:31:07.469Z,93527.00
2023-01-30T15:35:49.387Z,93518.00
2023-01-30T15:39:52.724Z,93519.00
2023-01-30T15:44:19.958Z,93545.00
2023-01-30T15:48:50.736Z,93544.00
2023-01-30T15:52:56.631Z,93546.00
2023-01-30T15:57:01.626Z,93553.00
2023-01-30T16:01:09.699Z,93569.00
2023-01-30T16:05:19.849Z,93559.00
2023-01-30T16:09:27.743Z,93575.00
2023-01-30T16:13:33.395Z,93587.00
2023-01-30T16:17:37.037Z,93570.00
2023-01-30T16:21:42.121Z,93593.00
2023-01-30T16:25:48.644Z,93609.00
2023-01-30T16:29:54.708Z,93585.00
2023-01-30T16:33:58.786Z,93602.00
2023-01-30T16:39:07.121Z,93614.00
2023-01-30T16:43:44.480Z,93609.00
2023-01-30T16:47:48.982Z,93598.00
2023-01-30T16:52:02.180Z,93631.00
2023-01-30T16:56:09.999Z,93612.00
2023-01-30T17:00:42.827Z,93608.00
2023-01-30T17:04:46.106Z,93616.00
2023-01-30T17:08:58.845Z,93626.00
2023-01-30T17:13:37.877Z,93629.00
2023-01-30T17:17:43.452Z,93622.00
2023-01-30T17:21:53.116Z,93635.00
2023-01-30T17:26:01.931Z,93631.00
2023-01-30T17:30:33.809Z,93627.00
2023-01-30T17:34:41.185Z,93629.00
2023-01-30T17:38:50.425Z,93627.00
2023-01-30T17:42:55.033Z,93640.00
2023-01-30T17:47:03.185Z,93626.00
2023-01-30T17:51:08.714Z,93608.00
2023-01-30T17:55:14.699Z,93623.00
2023-01-30T17:59:31.701Z,93636.00
2023-01-30T18:03:34.959Z,93628.00
2023-01-30T18:07:40.416Z,93635.00
2023-01-30T18:11:45.381Z,93631.00
2023-01-30T18:15:48.723Z,93633.00
2023-01-30T18:19:54.388Z,93632.00
2023-01-30T18:24:26.193Z,93646.00
2023-01-30T18:28:30.800Z,93639.00
2023-01-30T18:32:53.430Z,93640.00
2023-01-30T18:36:57.268Z,93632.00
2023-01-30T18:41:00.829Z,93647.00
2023-01-30T18:45:06.211Z,93649.00
2023-01-30T18:49:28.099Z,93636.00
2023-01-30T18:53:31.441Z,93653.00
2023-01-30T18:57:45.825Z,93659.00
2023-01-30T19:01:50.663Z,93664.00
2023-01-30T19:05:54.066Z,93667.00
2023-01-30T19:09:57.601Z,93678.00
2023-01-30T19:14:01.593Z,93675.00
2023-01-30T19:18:08.598Z,93660.00
2023-01-30T19:22:11.907Z,93654.00
2023-01-30T19:27:18.502Z,93673.00
2023-01-30T19:31:23.343Z,93691.00
2023-01-30T19:35:53.303Z,93684.00
2023-01-30T19:39:56.561Z,93701.00
2023-01-30T19:44:05.948Z,93705.00
2023-01-30T19:48:10.594Z,93712.00
2023-01-30T19:53:21.801Z,93722.00
2023-01-30T19:57:26.719Z,93706.00
2023-01-30T20:01:42.949Z,93716.00
2023-01-30T20:05:49.048Z,93722.00
2023-01-30T20:09:53.832Z,93733.00
2023-01-30T20:14:07.554Z,93723.00
2023-01-30T20:18:12.205Z,93691.00
2023-01-30T20:22:18.436Z,93691.00
2023-01-30T20:26:24.965Z,93719.00
2023-01-30T20:30:31.562Z,93715.00
2023-01-30T20:34:38.434Z,93719.00
2023-01-30T20:38:51.626Z,93680.00
2023-01-30T20:43:02.595Z,93687.00
2023-01-30T20:47:16.980Z,93722.00
2023-01-30T20:51:29.039Z,93708.00
2023-01-30T20:55:32.456Z,93711.00
2023-01-30T20:59:40.977Z,93699.00
2023-01-30T21:03:48.200Z,93727.00
2023-01-30T21:07:56.962Z,93731.00
2023-01-30T21:12:04.398Z,93736.00
2023-01-30T21:16:14.197Z,93761.00
2023-01-30T21:20:19.234Z,93763.00
2023-01-30T21:24:26.496Z,93760.00
2023-01-30T21:28:32.109Z,93767.00
2023-01-30T21:32:36.674Z,93761.00
2023-01-30T21:37:07.795Z,93770.00
2023-01-30T21:41:36.838Z,93783.00
2023-01-30T21:45:40.179Z,93805.00
2023-01-30T21:49:45.658Z,93779.00
2023-01-30T21:53:50.649Z,93805.00
2023-01-30T21:57:53.917Z,93807.00
2023-01-30T22:02:13.821Z,93802.00
2023-01-30T22:06:16.999Z,93805.00
2023-01-30T22:10:21.943Z,93824.00
2023-01-30T22:14:31.062Z,93800.00
2023-01-30T22:18:35.368Z,93799.00
2023-01-30T22:23:03.512Z,93816.00
2023-01-30T22:27:08.205Z,93813.00
2023-01-30T22:31:16.058Z,93821.00
2023-01-30T22:35:20.385Z,93830.00
2023-01-30T22:39:23.879Z,93814.00
2023-01-30T22:43:30.231Z,93826.00
2023-01-30T22:47:33.604Z,93832.00
2023-01-30T22:51:43.706Z,93839.00
2023-01-30T22:55:47.181Z,93839.00
2023-01-30T22:59:52.545Z,93811.00
2023-01-30T23:03:57.919Z,93834.00
2023-01-30T23:08:01.435Z,93856.00
2023-01-30T23:13:15.359Z,93870.00
2023-01-30T23:17:39.220Z,93884.00
2023-01-30T23:22:10.575Z,93865.00
2023-01-30T23:26:14.405Z,93851.00
2023-01-30T23:31:30.002Z,93846.00
2023-01-30T23:35:35.472Z,93864.00
2023-01-30T23:39:38.960Z,93838.00
2023-01-30T23:43:44.165Z,93853.00
2023-01-30T23:47:52.970Z,93848.00
2023-01-30T23:51:57.753Z,93860.00
2023-01-30T23:56:02.924Z,93849.00
